VNA1406 EDDV-EDDF
Flight info
| Callsign | VNA1406 |
|---|---|
| Flight time | N/A |
| Altitude | 15000 |
| Route | NORTA1G/09R NORTA P12 TOLTA T154 ROBAR T152 KERAX KERAX5A |
| Aircraft | A321/M-V/N |
Departure
| Time | 2026-05-07 17:00 |
|---|---|
| Airport | Hannover Airport (EDDV) |
Arrival
| Time | N/A |
|---|---|
| Airport | Frankfurt Main Airport (EDDF) |
| Time | Latitude | Longitude | Altitude | Speed | Heading |
|---|---|---|---|---|---|
| 2026-05-07 16:50 | 52.45773 | 9.69688 | 198 ft | 0 kts | 334° |
| 2026-05-07 16:54 | 52.45773 | 9.69687 | 198 ft | 0 kts | 334° |
| 2026-05-07 16:54 | 52.45772 | 9.69688 | 198 ft | 1 kts | 334° |
| 2026-05-07 16:54 | 52.45761 | 9.69697 | 198 ft | 2 kts | 334° |
| 2026-05-07 16:55 | 52.45744 | 9.69710 | 197 ft | 3 kts | 334° |
| 2026-05-07 16:55 | 52.45726 | 9.69724 | 197 ft | 3 kts | 334° |
| 2026-05-07 16:55 | 52.45708 | 9.69739 | 197 ft | 3 kts | 334° |
| 2026-05-07 16:55 | 52.45689 | 9.69753 | 197 ft | 3 kts | 334° |
| 2026-05-07 16:56 | 52.45687 | 9.69755 | 197 ft | 1 kts | 334° |
| 2026-05-07 16:56 | 52.45691 | 9.69749 | 197 ft | 1 kts | 307° |
| 2026-05-07 16:56 | 52.45706 | 9.69642 | 197 ft | 11 kts | 279° |
| 2026-05-07 16:57 | 52.45711 | 9.69487 | 197 ft | 17 kts | 268° |
| 2026-05-07 16:57 | 52.45702 | 9.69264 | 197 ft | 22 kts | 263° |
| 2026-05-07 16:57 | 52.45652 | 9.69134 | 197 ft | 15 kts | 205° |
| 2026-05-07 16:57 | 52.45550 | 9.69140 | 197 ft | 9 kts | 177° |
| 2026-05-07 16:58 | 52.45472 | 9.69110 | 197 ft | 14 kts | 208° |
| 2026-05-07 16:58 | 52.45446 | 9.68946 | 197 ft | 18 kts | 272° |
| 2026-05-07 16:58 | 52.45446 | 9.68707 | 197 ft | 24 kts | 266° |
| 2026-05-07 16:58 | 52.45452 | 9.68416 | 198 ft | 29 kts | 273° |
| 2026-05-07 16:59 | 52.45464 | 9.68268 | 197 ft | 1 kts | 332° |
| 2026-05-07 16:59 | 52.45473 | 9.68275 | 197 ft | 3 kts | 49° |
| 2026-05-07 16:59 | 52.45477 | 9.68320 | 197 ft | 0 kts | 92° |
| 2026-05-07 16:59 | 52.45476 | 9.68353 | 197 ft | 13 kts | 92° |
| 2026-05-07 17:00 | 52.45460 | 9.68936 | 198 ft | 97 kts | 93° |
| 2026-05-07 17:00 | 52.45409 | 9.70494 | 256 ft | 162 kts | 93° |
| 2026-05-07 17:00 | 52.45162 | 9.72064 | 320 ft | 197 kts | 115° |
| 2026-05-07 17:00 | 52.45474 | 9.74098 | 1001 ft | 155 kts | 58° |
| 2026-05-07 17:01 | 52.45982 | 9.75639 | 2158 ft | 158 kts | 71° |
| 2026-05-07 17:01 | 52.46162 | 9.77385 | 2641 ft | 156 kts | 90° |
| 2026-05-07 17:01 | 52.46091 | 9.79202 | 3046 ft | 171 kts | 96° |
| 2026-05-07 17:01 | 52.45852 | 9.81075 | 3869 ft | 165 kts | 108° |
| 2026-05-07 17:02 | 52.45447 | 9.82822 | 4652 ft | 169 kts | 110° |
| 2026-05-07 17:02 | 52.44922 | 9.84896 | 4638 ft | 218 kts | 112° |
| 2026-05-07 17:02 | 52.44318 | 9.87243 | 5026 ft | 223 kts | 104° |
| 2026-05-07 17:02 | 52.44282 | 9.89645 | 5845 ft | 204 kts | 77° |
| 2026-05-07 17:03 | 52.44563 | 9.92000 | 6100 ft | 224 kts | 76° |
| 2026-05-07 17:03 | 52.44874 | 9.94799 | 6192 ft | 272 kts | 85° |
| 2026-05-07 17:03 | 52.44798 | 9.98147 | 6253 ft | 316 kts | 95° |
| 2026-05-07 17:03 | 52.44577 | 10.01946 | 6339 ft | 350 kts | 95° |
| 2026-05-07 17:04 | 52.44362 | 10.05970 | 6399 ft | 358 kts | 94° |
| 2026-05-07 17:04 | 52.44203 | 10.10028 | 6402 ft | 348 kts | 93° |
| 2026-05-07 17:04 | 52.44096 | 10.13828 | 6262 ft | 333 kts | 92° |
| 2026-05-07 17:04 | 52.43987 | 10.17600 | 6105 ft | 319 kts | 95° |
| 2026-05-07 17:05 | 52.43402 | 10.20963 | 5967 ft | 304 kts | 118° |
| 2026-05-07 17:05 | 52.42124 | 10.23596 | 5931 ft | 283 kts | 143° |
| 2026-05-07 17:05 | 52.40429 | 10.24998 | 6087 ft | 266 kts | 170° |
| 2026-05-07 17:05 | 52.38627 | 10.25057 | 6369 ft | 260 kts | 197° |
| 2026-05-07 17:06 | 52.37010 | 10.23841 | 6665 ft | 254 kts | 222° |
| 2026-05-07 17:06 | 52.35854 | 10.21709 | 6981 ft | 249 kts | 237° |
| 2026-05-07 17:06 | 52.34883 | 10.19349 | 7289 ft | 250 kts | 239° |
| 2026-05-07 17:06 | 52.33955 | 10.16947 | 7589 ft | 251 kts | 240° |
| 2026-05-07 17:07 | 52.33028 | 10.14502 | 7896 ft | 257 kts | 240° |
| 2026-05-07 17:07 | 52.32058 | 10.11927 | 8217 ft | 274 kts | 240° |
| 2026-05-07 17:07 | 52.31043 | 10.09221 | 8531 ft | 284 kts | 240° |
| 2026-05-07 17:07 | 52.30002 | 10.06441 | 8834 ft | 289 kts | 240° |
| 2026-05-07 17:08 | 52.28955 | 10.03646 | 9135 ft | 289 kts | 240° |
| 2026-05-07 17:08 | 52.27903 | 10.00840 | 9438 ft | 291 kts | 240° |
| 2026-05-07 17:08 | 52.26840 | 9.98066 | 9740 ft | 292 kts | 239° |
| 2026-05-07 17:08 | 52.25716 | 9.95249 | 9990 ft | 294 kts | 239° |
| 2026-05-07 17:09 | 52.24584 | 9.92453 | 10022 ft | 294 kts | 238° |
| 2026-05-07 17:09 | 52.23402 | 9.89628 | 10010 ft | 295 kts | 235° |
| 2026-05-07 17:09 | 52.22062 | 9.87160 | 9994 ft | 296 kts | 226° |
| 2026-05-07 17:09 | 52.20469 | 9.84956 | 10011 ft | 298 kts | 220° |
| 2026-05-07 17:10 | 52.18792 | 9.82955 | 10006 ft | 299 kts | 218° |
| 2026-05-07 17:10 | 52.17076 | 9.81003 | 9984 ft | 299 kts | 218° |
| 2026-05-07 17:10 | 52.15378 | 9.79058 | 9982 ft | 299 kts | 218° |
| 2026-05-07 17:10 | 52.13697 | 9.77088 | 9991 ft | 299 kts | 219° |
| 2026-05-07 17:11 | 52.12029 | 9.75095 | 10003 ft | 298 kts | 219° |
| 2026-05-07 17:11 | 52.10369 | 9.73095 | 10007 ft | 299 kts | 219° |
| 2026-05-07 17:11 | 52.09245 | 9.71740 | 10009 ft | 298 kts | 219° |
| 2026-05-07 17:11 | 52.07571 | 9.69726 | 10020 ft | 298 kts | 219° |
| 2026-05-07 17:12 | 52.05888 | 9.67711 | 10030 ft | 310 kts | 219° |
| 2026-05-07 17:12 | 52.04076 | 9.65545 | 10024 ft | 334 kts | 219° |
| 2026-05-07 17:12 | 52.02164 | 9.63269 | 10011 ft | 350 kts | 219° |
| 2026-05-07 17:12 | 52.00173 | 9.60909 | 10007 ft | 356 kts | 219° |
| 2026-05-07 17:13 | 51.98174 | 9.58546 | 10001 ft | 355 kts | 219° |
| 2026-05-07 17:13 | 51.96191 | 9.56196 | 10001 ft | 355 kts | 219° |
| 2026-05-07 17:13 | 51.94163 | 9.53792 | 9995 ft | 355 kts | 219° |
| 2026-05-07 17:13 | 51.92175 | 9.51437 | 9995 ft | 355 kts | 219° |
| 2026-05-07 17:14 | 51.90116 | 9.49004 | 9996 ft | 355 kts | 219° |
| 2026-05-07 17:14 | 51.88177 | 9.46712 | 10002 ft | 355 kts | 219° |
| 2026-05-07 17:14 | 51.86188 | 9.44365 | 10004 ft | 355 kts | 219° |
| 2026-05-07 17:14 | 51.84197 | 9.42020 | 10002 ft | 355 kts | 219° |
| 2026-05-07 17:15 | 51.82206 | 9.39672 | 10001 ft | 353 kts | 219° |
| 2026-05-07 17:15 | 51.80262 | 9.37394 | 9870 ft | 335 kts | 219° |
| 2026-05-07 17:15 | 51.78396 | 9.35180 | 9345 ft | 330 kts | 219° |
| 2026-05-07 17:15 | 51.76561 | 9.32964 | 8707 ft | 330 kts | 220° |
| 2026-05-07 17:16 | 51.74719 | 9.30715 | 8078 ft | 329 kts | 220° |
| 2026-05-07 17:16 | 51.72914 | 9.28485 | 7500 ft | 327 kts | 220° |
| 2026-05-07 17:16 | 51.71171 | 9.26285 | 7254 ft | 314 kts | 221° |
| 2026-05-07 17:16 | 51.69487 | 9.24071 | 7052 ft | 300 kts | 223° |